sensor_id;sensor_type;location;lat;lon;timestamp;temperature;humidity
17529;DHT22;8882;53.192;8.184;2023-04-15T07:04:54;7.80;99.90
17529;DHT22;8882;53.192;8.184;2023-04-15T07:07:21;7.90;99.90
17529;DHT22;8882;53.192;8.184;2023-04-15T07:09:46;7.90;99.90
17529;DHT22;8882;53.192;8.184;2023-04-15T07:12:12;7.90;99.90
17529;DHT22;8882;53.192;8.184;2023-04-15T07:14:38;7.90;99.90
17529;DHT22;8882;53.192;8.184;2023-04-15T07:17:03;7.90;99.90
17529;DHT22;8882;53.192;8.184;2023-04-15T07:19:29;7.90;99.90
17529;DHT22;8882;53.192;8.184;2023-04-15T07:21:54;7.90;99.90
17529;DHT22;8882;53.192;8.184;2023-04-15T07:24:20;8.00;99.90
17529;DHT22;8882;53.192;8.184;2023-04-15T07:26:47;8.00;99.90
17529;DHT22;8882;53.192;8.184;2023-04-15T07:29:13;8.00;99.90
17529;DHT22;8882;53.192;8.184;2023-04-15T07:31:39;8.00;99.90
17529;DHT22;8882;53.192;8.184;2023-04-15T07:34:06;8.00;99.90
17529;DHT22;8882;53.192;8.184;2023-04-15T07:36:32;8.00;99.90
17529;DHT22;8882;53.192;8.184;2023-04-15T07:38:57;8.00;99.90
17529;DHT22;8882;53.192;8.184;2023-04-15T07:41:23;8.00;99.90
17529;DHT22;8882;53.192;8.184;2023-04-15T07:43:48;8.00;99.90
17529;DHT22;8882;53.192;8.184;2023-04-15T07:46:14;8.00;99.90
17529;DHT22;8882;53.192;8.184;2023-04-15T07:48:39;8.00;99.90
17529;DHT22;8882;53.192;8.184;2023-04-15T07:51:05;8.00;99.90
17529;DHT22;8882;53.192;8.184;2023-04-15T07:53:30;8.00;99.90
17529;DHT22;8882;53.192;8.184;2023-04-15T07:55:57;8.00;99.90
17529;DHT22;8882;53.192;8.184;2023-04-15T07:58:23;8.00;99.90
17529;DHT22;8882;53.192;8.184;2023-04-15T08:00:48;8.00;99.90
17529;DHT22;8882;53.192;8.184;2023-04-15T08:03:14;8.10;99.90
17529;DHT22;8882;53.192;8.184;2023-04-15T08:05:39;8.10;99.90
17529;DHT22;8882;53.192;8.184;2023-04-15T08:08:05;8.10;99.90
17529;DHT22;8882;53.192;8.184;2023-04-15T08:10:31;8.20;99.90
17529;DHT22;8882;53.192;8.184;2023-04-15T08:12:56;8.20;99.90
17529;DHT22;8882;53.192;8.184;2023-04-15T08:15:22;8.20;99.90
17529;DHT22;8882;53.192;8.184;2023-04-15T08:17:48;8.20;99.90
17529;DHT22;8882;53.192;8.184;2023-04-15T08:20:13;8.30;99.90
17529;DHT22;8882;53.192;8.184;2023-04-15T08:22:39;8.30;99.90
17529;DHT22;8882;53.192;8.184;2023-04-15T08:25:06;8.30;99.90
17529;DHT22;8882;53.192;8.184;2023-04-15T08:27:31;8.30;99.90
17529;DHT22;8882;53.192;8.184;2023-04-15T08:29:57;8.40;99.90
17529;DHT22;8882;53.192;8.184;2023-04-15T08:32:22;8.40;99.90
17529;DHT22;8882;53.192;8.184;2023-04-15T08:34:48;8.30;99.90
17529;DHT22;8882;53.192;8.184;2023-04-15T08:37:13;8.40;99.90
17529;DHT22;8882;53.192;8.184;2023-04-15T08:39:39;8.40;99.90
17529;DHT22;8882;53.192;8.184;2023-04-15T08:42:10;8.40;99.90
17529;DHT22;8882;53.192;8.184;2023-04-15T08:44:36;8.40;99.90
17529;DHT22;8882;53.192;8.184;2023-04-15T08:47:03;8.50;99.90
17529;DHT22;8882;53.192;8.184;2023-04-15T08:49:32;8.50;99.90
17529;DHT22;8882;53.192;8.184;2023-04-15T08:51:59;8.50;99.90
17529;DHT22;8882;53.192;8.184;2023-04-15T08:54:26;8.50;99.90
17529;DHT22;8882;53.192;8.184;2023-04-15T08:56:52;8.50;99.90
17529;DHT22;8882;53.192;8.184;2023-04-15T08:59:20;8.50;99.90
17529;DHT22;8882;53.192;8.184;2023-04-15T09:01:46;8.50;99.90
17529;DHT22;8882;53.192;8.184;2023-04-15T09:04:13;8.50;99.90
17529;DHT22;8882;53.192;8.184;2023-04-15T09:06:39;8.50;99.90
17529;DHT22;8882;53.192;8.184;2023-04-15T09:09:05;8.40;99.90
17529;DHT22;8882;53.192;8.184;2023-04-15T09:11:30;8.40;99.90
17529;DHT22;8882;53.192;8.184;2023-04-15T09:13:56;8.40;99.90
17529;DHT22;8882;53.192;8.184;2023-04-15T09:16:21;8.50;99.90
17529;DHT22;8882;53.192;8.184;2023-04-15T09:18:47;8.50;99.90
17529;DHT22;8882;53.192;8.184;2023-04-15T09:21:15;8.50;99.90
17529;DHT22;8882;53.192;8.184;2023-04-15T09:23:53;8.50;99.90
17529;DHT22;8882;53.192;8.184;2023-04-15T09:26:19;8.50;99.90
17529;DHT22;8882;53.192;8.184;2023-04-15T09:29:10;8.50;99.90
17529;DHT22;8882;53.192;8.184;2023-04-15T09:31:39;8.50;99.90
17529;DHT22;8882;53.192;8.184;2023-04-15T09:34:05;8.50;99.90
17529;DHT22;8882;53.192;8.184;2023-04-15T09:39:12;8.60;99.90
17529;DHT22;8882;53.192;8.184;2023-04-15T09:41:38;8.60;99.90
17529;DHT22;8882;53.192;8.184;2023-04-15T09:44:04;8.60;99.90
17529;DHT22;8882;53.192;8.184;2023-04-15T09:46:43;8.60;99.90
17529;DHT22;8882;53.192;8.184;2023-04-15T09:49:10;8.60;99.90
17529;DHT22;8882;53.192;8.184;2023-04-15T09:51:37;8.60;99.90
17529;DHT22;8882;53.192;8.184;2023-04-15T09:54:03;8.60;99.90
17529;DHT22;8882;53.192;8.184;2023-04-15T09:56:37;8.50;99.90
17529;DHT22;8882;53.192;8.184;2023-04-15T09:59:07;8.50;99.90
17529;DHT22;8882;53.192;8.184;2023-04-15T10:01:33;8.60;99.90
17529;DHT22;8882;53.192;8.184;2023-04-15T10:04:02;8.60;99.90
17529;DHT22;8882;53.192;8.184;2023-04-15T10:06:28;8.60;99.90
17529;DHT22;8882;53.192;8.184;2023-04-15T10:08:55;8.60;99.90
17529;DHT22;8882;53.192;8.184;2023-04-15T10:11:21;8.60;99.90
17529;DHT22;8882;53.192;8.184;2023-04-15T10:13:50;8.60;99.90
17529;DHT22;8882;53.192;8.184;2023-04-15T10:16:19;8.60;99.90
17529;DHT22;8882;53.192;8.184;2023-04-15T10:18:46;8.60;99.90
17529;DHT22;8882;53.192;8.184;2023-04-15T10:21:13;8.60;99.90
17529;DHT22;8882;53.192;8.184;2023-04-15T10:23:45;8.70;99.90
17529;DHT22;8882;53.192;8.184;2023-04-15T10:26:12;8.70;99.90
17529;DHT22;8882;53.192;8.184;2023-04-15T10:28:39;8.60;99.90
17529;DHT22;8882;53.192;8.184;2023-04-15T10:31:05;8.60;99.90
17529;DHT22;8882;53.192;8.184;2023-04-15T10:33:31;8.60;99.90
17529;DHT22;8882;53.192;8.184;2023-04-15T10:35:58;8.60;99.90
17529;DHT22;8882;53.192;8.184;2023-04-15T10:38:44;8.70;99.90
17529;DHT22;8882;53.192;8.184;2023-04-15T10:46:33;8.70;99.90
17529;DHT22;8882;53.192;8.184;2023-04-15T10:49:06;8.70;99.90
17529;DHT22;8882;53.192;8.184;2023-04-15T10:51:32;8.80;99.90
17529;DHT22;8882;53.192;8.184;2023-04-15T10:53:59;8.70;99.90
17529;DHT22;8882;53.192;8.184;2023-04-15T10:56:26;8.80;99.90
17529;DHT22;8882;53.192;8.184;2023-04-15T10:58:52;8.80;99.90
17529;DHT22;8882;53.192;8.184;2023-04-15T11:01:19;8.90;99.90
17529;DHT22;8882;53.192;8.184;2023-04-15T11:03:47;8.90;99.90
17529;DHT22;8882;53.192;8.184;2023-04-15T11:06:13;8.90;99.90
17529;DHT22;8882;53.192;8.184;2023-04-15T11:08:58;8.90;99.90
17529;DHT22;8882;53.192;8.184;2023-04-15T11:12:06;8.90;99.90
17529;DHT22;8882;53.192;8.184;2023-04-15T11:14:33;8.90;99.90
17529;DHT22;8882;53.192;8.184;2023-04-15T11:17:00;8.90;99.90
17529;DHT22;8882;53.192;8.184;2023-04-15T11:19:26;8.90;99.90
17529;DHT22;8882;53.192;8.184;2023-04-15T11:22:06;8.80;99.90
17529;DHT22;8882;53.192;8.184;2023-04-15T11:24:32;8.80;99.90
17529;DHT22;8882;53.192;8.184;2023-04-15T11:26:57;8.80;99.90
17529;DHT22;8882;53.192;8.184;2023-04-15T11:29:28;8.80;99.90
17529;DHT22;8882;53.192;8.184;2023-04-15T11:32:04;8.80;99.90
17529;DHT22;8882;53.192;8.184;2023-04-15T11:34:31;8.80;99.90
17529;DHT22;8882;53.192;8.184;2023-04-15T11:36:57;8.80;99.90
17529;DHT22;8882;53.192;8.184;2023-04-15T11:39:22;8.70;99.90
17529;DHT22;8882;53.192;8.184;2023-04-15T11:41:48;8.70;99.90
17529;DHT22;8882;53.192;8.184;2023-04-15T11:44:17;8.70;99.90
17529;DHT22;8882;53.192;8.184;2023-04-15T11:46:43;8.70;99.90
17529;DHT22;8882;53.192;8.184;2023-04-15T11:49:08;8.60;99.90
17529;DHT22;8882;53.192;8.184;2023-04-15T11:51:34;8.60;99.90
17529;DHT22;8882;53.192;8.184;2023-04-15T11:54:00;8.70;99.90
17529;DHT22;8882;53.192;8.184;2023-04-15T11:56:25;8.60;99.90
17529;DHT22;8882;53.192;8.184;2023-04-15T11:58:58;8.60;99.90
17529;DHT22;8882;53.192;8.184;2023-04-15T12:01:50;8.60;99.90
17529;DHT22;8882;53.192;8.184;2023-04-15T12:04:17;8.60;99.90
17529;DHT22;8882;53.192;8.184;2023-04-15T12:06:47;8.60;99.90
17529;DHT22;8882;53.192;8.184;2023-04-15T12:09:17;8.60;99.90
17529;DHT22;8882;53.192;8.184;2023-04-15T12:11:50;8.60;99.90
17529;DHT22;8882;53.192;8.184;2023-04-15T12:14:27;8.60;99.90
17529;DHT22;8882;53.192;8.184;2023-04-15T12:16:58;8.70;99.90
17529;DHT22;8882;53.192;8.184;2023-04-15T12:19:38;8.70;99.90
17529;DHT22;8882;53.192;8.184;2023-04-15T12:22:09;8.70;99.90
17529;DHT22;8882;53.192;8.184;2023-04-15T12:24:36;8.70;99.90
17529;DHT22;8882;53.192;8.184;2023-04-15T12:27:07;8.70;99.90
17529;DHT22;8882;53.192;8.184;2023-04-15T12:29:34;8.70;99.90
17529;DHT22;8882;53.192;8.184;2023-04-15T12:32:08;8.70;99.90
17529;DHT22;8882;53.192;8.184;2023-04-15T12:34:39;8.70;99.90
17529;DHT22;8882;53.192;8.184;2023-04-15T12:37:07;8.70;99.90
17529;DHT22;8882;53.192;8.184;2023-04-15T12:39:35;8.80;99.90
17529;DHT22;8882;53.192;8.184;2023-04-15T12:42:01;8.70;99.90
17529;DHT22;8882;53.192;8.184;2023-04-15T12:44:27;8.80;99.90
17529;DHT22;8882;53.192;8.184;2023-04-15T12:46:53;8.80;99.90
17529;DHT22;8882;53.192;8.184;2023-04-15T12:49:23;8.80;99.90
17529;DHT22;8882;53.192;8.184;2023-04-15T12:51:50;8.80;99.90
17529;DHT22;8882;53.192;8.184;2023-04-15T12:54:16;8.80;99.90
17529;DHT22;8882;53.192;8.184;2023-04-15T12:56:43;8.80;99.90
17529;DHT22;8882;53.192;8.184;2023-04-15T12:59:08;8.80;99.90
17529;DHT22;8882;53.192;8.184;2023-04-15T13:01:34;8.80;99.90
17529;DHT22;8882;53.192;8.184;2023-04-15T13:04:00;8.80;99.90
17529;DHT22;8882;53.192;8.184;2023-04-15T13:06:26;8.80;99.90
17529;DHT22;8882;53.192;8.184;2023-04-15T13:08:51;8.90;99.90
17529;DHT22;8882;53.192;8.184;2023-04-15T13:11:20;8.90;99.90
17529;DHT22;8882;53.192;8.184;2023-04-15T13:13:45;8.90;99.90
17529;DHT22;8882;53.192;8.184;2023-04-15T13:16:11;8.90;99.90
17529;DHT22;8882;53.192;8.184;2023-04-15T13:18:36;8.90;99.90
17529;DHT22;8882;53.192;8.184;2023-04-15T13:21:02;8.80;99.90
17529;DHT22;8882;53.192;8.184;2023-04-15T13:23:28;8.80;99.90
17529;DHT22;8882;53.192;8.184;2023-04-15T13:25:53;8.80;99.90
17529;DHT22;8882;53.192;8.184;2023-04-15T13:28:19;8.80;99.90
17529;DHT22;8882;53.192;8.184;2023-04-15T13:30:44;8.80;99.90
17529;DHT22;8882;53.192;8.184;2023-04-15T13:33:11;8.90;99.90
17529;DHT22;8882;53.192;8.184;2023-04-15T13:35:36;8.80;99.90
17529;DHT22;8882;53.192;8.184;2023-04-15T13:38:02;8.90;99.90
17529;DHT22;8882;53.192;8.184;2023-04-15T13:40:28;8.90;99.90
17529;DHT22;8882;53.192;8.184;2023-04-15T13:42:53;8.90;99.90
17529;DHT22;8882;53.192;8.184;2023-04-15T13:45:19;8.90;99.90
17529;DHT22;8882;53.192;8.184;2023-04-15T13:47:44;8.90;99.90
17529;DHT22;8882;53.192;8.184;2023-04-15T13:50:10;9.00;99.90
17529;DHT22;8882;53.192;8.184;2023-04-15T13:52:36;9.00;99.90
17529;DHT22;8882;53.192;8.184;2023-04-15T13:55:02;8.90;99.90
17529;DHT22;8882;53.192;8.184;2023-04-15T13:57:28;9.00;99.90
17529;DHT22;8882;53.192;8.184;2023-04-15T13:59:54;9.00;99.90
17529;DHT22;8882;53.192;8.184;2023-04-15T14:02:20;9.00;99.90
17529;DHT22;8882;53.192;8.184;2023-04-15T14:04:46;9.00;99.90
17529;DHT22;8882;53.192;8.184;2023-04-15T14:07:11;9.00;99.90
17529;DHT22;8882;53.192;8.184;2023-04-15T14:09:37;9.00;99.90
17529;DHT22;8882;53.192;8.184;2023-04-15T14:12:02;9.10;99.90
17529;DHT22;8882;53.192;8.184;2023-04-15T14:14:28;9.00;99.90
17529;DHT22;8882;53.192;8.184;2023-04-15T14:16:54;9.10;99.90
17529;DHT22;8882;53.192;8.184;2023-04-15T14:19:20;9.20;99.90
17529;DHT22;8882;53.192;8.184;2023-04-15T14:21:46;9.30;99.90
17529;DHT22;8882;53.192;8.184;2023-04-15T14:24:11;9.30;99.90
17529;DHT22;8882;53.192;8.184;2023-04-15T14:26:37;9.40;99.90
17529;DHT22;8882;53.192;8.184;2023-04-15T14:29:02;9.50;99.90
17529;DHT22;8882;53.192;8.184;2023-04-15T14:31:28;9.50;99.90
17529;DHT22;8882;53.192;8.184;2023-04-15T14:33:54;9.50;99.90
17529;DHT22;8882;53.192;8.184;2023-04-15T14:36:19;9.60;99.90
17529;DHT22;8882;53.192;8.184;2023-04-15T14:38:45;9.70;99.90
17529;DHT22;8882;53.192;8.184;2023-04-15T14:41:10;9.80;99.90
17529;DHT22;8882;53.192;8.184;2023-04-15T14:43:36;9.80;99.90
17529;DHT22;8882;53.192;8.184;2023-04-15T14:46:02;9.90;99.90
17529;DHT22;8882;53.192;8.184;2023-04-15T14:48:27;9.90;99.90
17529;DHT22;8882;53.192;8.184;2023-04-15T14:50:53;10.00;99.90
17529;DHT22;8882;53.192;8.184;2023-04-15T14:53:19;10.20;99.90
17529;DHT22;8882;53.192;8.184;2023-04-15T14:55:44;10.10;99.90
17529;DHT22;8882;53.192;8.184;2023-04-15T14:58:10;10.10;99.90
17529;DHT22;8882;53.192;8.184;2023-04-15T15:00:37;10.20;99.90
17529;DHT22;8882;53.192;8.184;2023-04-15T15:03:09;10.20;99.90
17529;DHT22;8882;53.192;8.184;2023-04-15T15:05:44;10.20;99.90
17529;DHT22;8882;53.192;8.184;2023-04-15T15:08:12;10.30;99.90
17529;DHT22;8882;53.192;8.184;2023-04-15T15:10:38;10.30;99.90
17529;DHT22;8882;53.192;8.184;2023-04-15T15:13:06;10.30;99.90
17529;DHT22;8882;53.192;8.184;2023-04-15T15:15:32;10.40;99.90
17529;DHT22;8882;53.192;8.184;2023-04-15T15:17:59;10.40;99.90
17529;DHT22;8882;53.192;8.184;2023-04-15T15:20:24;10.50;99.90
17529;DHT22;8882;53.192;8.184;2023-04-15T15:22:50;10.50;99.90
17529;DHT22;8882;53.192;8.184;2023-04-15T15:25:16;10.60;99.90
17529;DHT22;8882;53.192;8.184;2023-04-15T15:27:41;10.70;99.90
17529;DHT22;8882;53.192;8.184;2023-04-15T15:30:07;10.80;99.90
17529;DHT22;8882;53.192;8.184;2023-04-15T15:32:33;10.80;99.90
17529;DHT22;8882;53.192;8.184;2023-04-15T15:34:58;10.80;99.90
17529;DHT22;8882;53.192;8.184;2023-04-15T15:37:24;10.80;99.90
17529;DHT22;8882;53.192;8.184;2023-04-15T15:39:51;10.90;99.90
17529;DHT22;8882;53.192;8.184;2023-04-15T15:42:18;10.90;99.90
17529;DHT22;8882;53.192;8.184;2023-04-15T15:44:44;10.90;99.90
17529;DHT22;8882;53.192;8.184;2023-04-15T15:47:10;10.90;99.90
17529;DHT22;8882;53.192;8.184;2023-04-15T15:49:35;10.90;99.90
17529;DHT22;8882;53.192;8.184;2023-04-15T15:52:01;10.90;99.90
17529;DHT22;8882;53.192;8.184;2023-04-15T15:54:26;10.90;99.90
17529;DHT22;8882;53.192;8.184;2023-04-15T15:56:53;10.90;99.90
17529;DHT22;8882;53.192;8.184;2023-04-15T15:59:18;10.90;99.90
17529;DHT22;8882;53.192;8.184;2023-04-15T16:01:44;11.00;99.90
17529;DHT22;8882;53.192;8.184;2023-04-15T16:04:10;10.90;99.90
17529;DHT22;8882;53.192;8.184;2023-04-15T16:06:35;11.00;99.90
17529;DHT22;8882;53.192;8.184;2023-04-15T16:09:01;11.00;99.90
17529;DHT22;8882;53.192;8.184;2023-04-15T16:11:27;10.90;99.90
17529;DHT22;8882;53.192;8.184;2023-04-15T16:13:53;10.90;99.90
17529;DHT22;8882;53.192;8.184;2023-04-15T16:16:18;10.90;99.90
17529;DHT22;8882;53.192;8.184;2023-04-15T16:18:44;10.80;99.90
17529;DHT22;8882;53.192;8.184;2023-04-15T16:21:09;10.80;99.90
17529;DHT22;8882;53.192;8.184;2023-04-15T16:23:35;10.80;99.90
17529;DHT22;8882;53.192;8.184;2023-04-15T16:26:01;10.70;99.90
17529;DHT22;8882;53.192;8.184;2023-04-15T16:28:27;10.80;99.90
17529;DHT22;8882;53.192;8.184;2023-04-15T16:30:53;10.70;99.90
17529;DHT22;8882;53.192;8.184;2023-04-15T16:33:19;10.90;99.90
17529;DHT22;8882;53.192;8.184;2023-04-15T16:35:45;11.20;99.90
17529;DHT22;8882;53.192;8.184;2023-04-15T16:38:10;11.40;99.90
17529;DHT22;8882;53.192;8.184;2023-04-15T16:40:36;11.50;99.90
17529;DHT22;8882;53.192;8.184;2023-04-15T16:43:02;11.20;99.90
17529;DHT22;8882;53.192;8.184;2023-04-15T16:45:28;11.50;99.90
17529;DHT22;8882;53.192;8.184;2023-04-15T16:47:53;11.60;99.90
17529;DHT22;8882;53.192;8.184;2023-04-15T16:50:20;11.60;99.90
17529;DHT22;8882;53.192;8.184;2023-04-15T16:52:46;11.50;99.90
17529;DHT22;8882;53.192;8.184;2023-04-15T16:55:11;11.40;99.90
17529;DHT22;8882;53.192;8.184;2023-04-15T16:57:37;11.30;99.90
17529;DHT22;8882;53.192;8.184;2023-04-15T17:00:03;11.30;99.90
17529;DHT22;8882;53.192;8.184;2023-04-15T17:02:28;11.30;99.90
17529;DHT22;8882;53.192;8.184;2023-04-15T17:04:54;11.20;99.90
17529;DHT22;8882;53.192;8.184;2023-04-15T17:07:19;11.20;99.90
17529;DHT22;8882;53.192;8.184;2023-04-15T17:09:45;11.20;99.90
17529;DHT22;8882;53.192;8.184;2023-04-15T17:12:11;11.10;99.90
17529;DHT22;8882;53.192;8.184;2023-04-15T17:14:36;11.10;99.90
17529;DHT22;8882;53.192;8.184;2023-04-15T17:17:02;11.10;99.90
17529;DHT22;8882;53.192;8.184;2023-04-15T17:19:28;11.10;99.90
17529;DHT22;8882;53.192;8.184;2023-04-15T17:21:54;11.10;99.90
17529;DHT22;8882;53.192;8.184;2023-04-15T17:24:19;11.00;99.90
17529;DHT22;8882;53.192;8.184;2023-04-15T17:26:45;11.00;99.90
17529;DHT22;8882;53.192;8.184;2023-04-15T17:29:11;11.00;99.90
17529;DHT22;8882;53.192;8.184;2023-04-15T17:31:37;11.00;99.90
17529;DHT22;8882;53.192;8.184;2023-04-15T17:34:03;11.00;99.90
17529;DHT22;8882;53.192;8.184;2023-04-15T17:36:28;10.90;99.90
17529;DHT22;8882;53.192;8.184;2023-04-15T17:38:55;10.80;99.90
17529;DHT22;8882;53.192;8.184;2023-04-15T17:41:21;10.90;99.90
17529;DHT22;8882;53.192;8.184;2023-04-15T17:43:46;10.90;99.90
17529;DHT22;8882;53.192;8.184;2023-04-15T17:46:12;10.90;99.90
17529;DHT22;8882;53.192;8.184;2023-04-15T17:48:38;10.90;99.90
17529;DHT22;8882;53.192;8.184;2023-04-15T17:51:03;10.80;99.90
17529;DHT22;8882;53.192;8.184;2023-04-15T17:53:29;10.90;99.90
17529;DHT22;8882;53.192;8.184;2023-04-15T17:55:54;10.80;99.90
17529;DHT22;8882;53.192;8.184;2023-04-15T17:58:21;10.90;99.90
17529;DHT22;8882;53.192;8.184;2023-04-15T18:00:47;10.70;99.90
17529;DHT22;8882;53.192;8.184;2023-04-15T18:03:12;10.70;99.90
17529;DHT22;8882;53.192;8.184;2023-04-15T18:05:38;10.60;99.90
17529;DHT22;8882;53.192;8.184;2023-04-15T18:08:05;10.60;99.90
17529;DHT22;8882;53.192;8.184;2023-04-15T18:10:32;10.70;99.90
17529;DHT22;8882;53.192;8.184;2023-04-15T18:12:58;10.60;99.90
17529;DHT22;8882;53.192;8.184;2023-04-15T18:15:24;10.60;99.90
17529;DHT22;8882;53.192;8.184;2023-04-15T18:17:50;10.50;99.90
17529;DHT22;8882;53.192;8.184;2023-04-15T18:20:15;10.50;99.90
17529;DHT22;8882;53.192;8.184;2023-04-15T18:22:41;10.50;99.90
17529;DHT22;8882;53.192;8.184;2023-04-15T18:25:07;10.50;99.90
17529;DHT22;8882;53.192;8.184;2023-04-15T18:27:33;10.40;99.90
17529;DHT22;8882;53.192;8.184;2023-04-15T18:29:59;10.40;99.90
17529;DHT22;8882;53.192;8.184;2023-04-15T18:32:25;10.40;99.90
17529;DHT22;8882;53.192;8.184;2023-04-15T18:34:53;10.40;99.90
17529;DHT22;8882;53.192;8.184;2023-04-15T18:37:20;10.30;99.90
17529;DHT22;8882;53.192;8.184;2023-04-15T18:39:46;10.30;99.90
17529;DHT22;8882;53.192;8.184;2023-04-15T18:42:11;10.30;99.90
17529;DHT22;8882;53.192;8.184;2023-04-15T18:44:37;10.40;99.90
17529;DHT22;8882;53.192;8.184;2023-04-15T18:47:02;10.40;99.90
17529;DHT22;8882;53.192;8.184;2023-04-15T18:49:30;10.90;99.90
17529;DHT22;8882;53.192;8.184;2023-04-15T18:51:57;11.30;99.90
17529;DHT22;8882;53.192;8.184;2023-04-15T18:54:23;11.40;99.90
17529;DHT22;8882;53.192;8.184;2023-04-15T18:56:49;11.30;99.90
17529;DHT22;8882;53.192;8.184;2023-04-15T18:59:15;11.20;99.90
17529;DHT22;8882;53.192;8.184;2023-04-15T19:01:41;11.20;99.90
17529;DHT22;8882;53.192;8.184;2023-04-15T19:04:06;11.10;99.90
17529;DHT22;8882;53.192;8.184;2023-04-15T19:06:32;11.10;99.90
17529;DHT22;8882;53.192;8.184;2023-04-15T19:08:58;11.00;99.90
17529;DHT22;8882;53.192;8.184;2023-04-15T19:11:24;10.90;99.90
17529;DHT22;8882;53.192;8.184;2023-04-15T19:13:50;10.80;99.90
17529;DHT22;8882;53.192;8.184;2023-04-15T19:16:16;10.80;99.90
17529;DHT22;8882;53.192;8.184;2023-04-15T19:18:42;10.80;99.90
17529;DHT22;8882;53.192;8.184;2023-04-15T19:21:08;10.70;99.90
17529;DHT22;8882;53.192;8.184;2023-04-15T19:23:34;10.80;99.90
17529;DHT22;8882;53.192;8.184;2023-04-15T19:25:59;10.70;99.90
17529;DHT22;8882;53.192;8.184;2023-04-15T19:28:25;10.70;99.90
17529;DHT22;8882;53.192;8.184;2023-04-15T19:30:52;10.70;99.90
17529;DHT22;8882;53.192;8.184;2023-04-15T19:33:18;10.70;99.90
17529;DHT22;8882;53.192;8.184;2023-04-15T19:35:44;10.70;99.90
17529;DHT22;8882;53.192;8.184;2023-04-15T19:38:09;10.60;99.90
17529;DHT22;8882;53.192;8.184;2023-04-15T19:40:35;10.60;99.90
17529;DHT22;8882;53.192;8.184;2023-04-15T19:43:00;10.60;99.90
17529;DHT22;8882;53.192;8.184;2023-04-15T19:45:26;10.60;99.90
17529;DHT22;8882;53.192;8.184;2023-04-15T19:47:52;10.60;99.90
17529;DHT22;8882;53.192;8.184;2023-04-15T19:50:18;10.60;99.90
17529;DHT22;8882;53.192;8.184;2023-04-15T19:52:48;10.50;99.90
17529;DHT22;8882;53.192;8.184;2023-04-15T19:55:14;10.50;99.90
17529;DHT22;8882;53.192;8.184;2023-04-15T19:57:39;10.50;99.90
17529;DHT22;8882;53.192;8.184;2023-04-15T20:00:05;10.50;99.90
17529;DHT22;8882;53.192;8.184;2023-04-15T20:02:31;10.50;99.90
17529;DHT22;8882;53.192;8.184;2023-04-15T20:04:57;10.50;99.90
17529;DHT22;8882;53.192;8.184;2023-04-15T20:07:22;10.50;99.90
17529;DHT22;8882;53.192;8.184;2023-04-15T20:09:48;10.40;99.90
17529;DHT22;8882;53.192;8.184;2023-04-15T20:12:16;10.40;99.90
17529;DHT22;8882;53.192;8.184;2023-04-15T20:14:41;10.30;99.90
17529;DHT22;8882;53.192;8.184;2023-04-15T20:17:07;10.30;99.90
17529;DHT22;8882;53.192;8.184;2023-04-15T20:19:32;10.30;99.90
17529;DHT22;8882;53.192;8.184;2023-04-15T20:21:58;10.30;99.90
17529;DHT22;8882;53.192;8.184;2023-04-15T20:24:23;10.40;99.90
17529;DHT22;8882;53.192;8.184;2023-04-15T20:26:49;10.40;99.90
17529;DHT22;8882;53.192;8.184;2023-04-15T20:29:14;10.30;99.90
17529;DHT22;8882;53.192;8.184;2023-04-15T20:31:40;10.30;99.90
17529;DHT22;8882;53.192;8.184;2023-04-15T20:34:05;10.20;99.90
17529;DHT22;8882;53.192;8.184;2023-04-15T20:36:31;10.20;99.90
17529;DHT22;8882;53.192;8.184;2023-04-15T20:38:56;10.20;99.90
17529;DHT22;8882;53.192;8.184;2023-04-15T20:41:22;10.10;99.90
17529;DHT22;8882;53.192;8.184;2023-04-15T20:43:47;10.10;99.90
17529;DHT22;8882;53.192;8.184;2023-04-15T20:46:13;10.10;99.90
17529;DHT22;8882;53.192;8.184;2023-04-15T20:48:38;10.10;99.90
17529;DHT22;8882;53.192;8.184;2023-04-15T20:51:04;10.10;99.90
17529;DHT22;8882;53.192;8.184;2023-04-15T20:53:29;10.10;99.90
17529;DHT22;8882;53.192;8.184;2023-04-15T20:55:55;10.10;99.90
17529;DHT22;8882;53.192;8.184;2023-04-15T20:58:20;10.00;99.90
